createdAt,value
2023-04-18T00:00:25.714Z,9.43
2023-04-18T00:03:16.037Z,9.57
2023-04-18T00:06:03.618Z,9.60
2023-04-18T00:08:51.557Z,9.43
2023-04-18T00:11:38.239Z,9.30
2023-04-18T00:14:24.985Z,9.00
2023-04-18T00:17:13.512Z,10.03
2023-04-18T00:20:02.432Z,9.73
2023-04-18T00:22:49.081Z,9.83
2023-04-18T00:25:37.138Z,9.50
2023-04-18T00:28:23.682Z,9.37
2023-04-18T00:31:10.503Z,9.27
2023-04-18T00:33:57.069Z,9.43
2023-04-18T00:36:43.808Z,9.93
2023-04-18T00:39:30.715Z,13.10
2023-04-18T00:42:18.863Z,9.37
2023-04-18T00:45:06.462Z,9.03
2023-04-18T00:47:53.159Z,10.47
2023-04-18T00:50:41.277Z,9.57
2023-04-18T00:53:29.496Z,9.43
2023-04-18T00:56:16.019Z,10.00
2023-04-18T00:59:04.504Z,9.40
2023-04-18T01:01:51.369Z,9.23
2023-04-18T01:04:38.731Z,9.90
2023-04-18T01:07:30.745Z,9.30
2023-04-18T01:10:17.509Z,9.60
2023-04-18T01:13:15.001Z,8.63
2023-04-18T01:16:03.091Z,9.80
2023-04-18T01:18:49.608Z,9.90
2023-04-18T01:21:37.447Z,9.50
2023-04-18T01:24:26.868Z,9.40
2023-04-18T01:27:14.504Z,10.80
2023-04-18T01:30:01.211Z,10.27
2023-04-18T01:32:50.085Z,9.97
2023-04-18T01:35:37.738Z,8.70
2023-04-18T01:38:24.646Z,9.53
2023-04-18T01:41:12.741Z,8.63
2023-04-18T01:43:59.424Z,9.43
2023-04-18T01:46:46.360Z,9.30
2023-04-18T01:49:33.278Z,9.53
2023-04-18T01:52:20.156Z,8.93
2023-04-18T01:55:07.410Z,8.67
2023-04-18T01:57:56.648Z,8.50
2023-04-18T02:00:43.553Z,9.67
2023-04-18T02:03:30.409Z,9.57
2023-04-18T02:06:17.627Z,9.47
2023-04-18T02:09:04.246Z,9.73
2023-04-18T02:11:51.099Z,9.63
2023-04-18T02:14:39.124Z,8.60
2023-04-18T02:17:25.808Z,9.23
2023-04-18T02:20:15.880Z,9.90
2023-04-18T02:23:03.562Z,9.27
2023-04-18T02:25:50.893Z,8.83
2023-04-18T02:28:39.203Z,9.27
2023-04-18T02:31:27.238Z,9.30
2023-04-18T02:34:14.230Z,8.87
2023-04-18T02:37:01.528Z,9.43
2023-04-18T02:39:48.123Z,9.70
2023-04-18T02:42:34.852Z,10.40
2023-04-18T02:45:21.789Z,9.87
2023-04-18T02:48:09.724Z,8.80
2023-04-18T02:51:03.441Z,9.50
2023-04-18T02:53:55.051Z,9.17
2023-04-18T02:56:42.964Z,8.03
2023-04-18T02:59:35.879Z,9.73
2023-04-18T03:02:41.463Z,9.77
2023-04-18T03:05:49.968Z,8.93
2023-04-18T03:08:36.700Z,9.80
2023-04-18T03:11:23.441Z,9.70
2023-04-18T03:14:10.437Z,8.97
2023-04-18T03:17:05.434Z,9.27
2023-04-18T03:19:58.448Z,8.47
2023-04-18T03:22:46.573Z,8.57
2023-04-18T03:25:35.399Z,9.53
2023-04-18T03:28:24.044Z,8.87
2023-04-18T03:31:10.954Z,8.90
2023-04-18T03:33:59.917Z,9.77
2023-04-18T03:36:47.943Z,8.70
2023-04-18T03:39:37.254Z,8.47
2023-04-18T03:42:24.482Z,9.20
2023-04-18T03:45:11.850Z,9.37
2023-04-18T03:47:58.992Z,10.30
2023-04-18T03:50:45.582Z,9.07
2023-04-18T03:53:32.483Z,9.20
2023-04-18T03:56:20.588Z,9.07
2023-04-18T03:59:10.940Z,9.73
2023-04-18T04:01:58.642Z,8.90
2023-04-18T04:04:45.521Z,10.13
2023-04-18T04:07:32.605Z,8.37
2023-04-18T04:10:19.326Z,8.93
2023-04-18T04:13:09.008Z,9.30
2023-04-18T04:15:58.883Z,9.27
2023-04-18T04:18:46.038Z,9.50
2023-04-18T04:21:33.754Z,9.60
2023-04-18T04:24:22.746Z,9.33
2023-04-18T04:27:12.673Z,10.03
2023-04-18T04:30:02.694Z,9.63
2023-04-18T04:32:49.494Z,9.40
2023-04-18T04:35:36.774Z,9.03
2023-04-18T04:38:25.070Z,9.97
2023-04-18T04:41:13.804Z,10.03
2023-04-18T04:44:01.920Z,10.23
2023-04-18T04:46:54.544Z,10.90
2023-04-18T04:49:45.244Z,9.87
2023-04-18T04:52:32.717Z,10.97
2023-04-18T04:55:19.558Z,10.10
2023-04-18T04:58:05.987Z,10.40
2023-04-18T05:01:07.727Z,11.23
2023-04-18T05:03:56.077Z,11.03
2023-04-18T05:06:42.771Z,11.00
2023-04-18T05:09:29.716Z,8.93
2023-04-18T05:12:16.446Z,9.67
2023-04-18T05:15:03.218Z,8.30
2023-04-18T05:17:50.205Z,9.47
2023-04-18T05:20:38.269Z,8.40
2023-04-18T05:23:25.351Z,9.03
2023-04-18T05:26:11.930Z,8.60
2023-04-18T05:28:58.619Z,8.53
2023-04-18T05:31:45.554Z,8.77
2023-04-18T05:34:32.562Z,8.73
2023-04-18T05:37:20.742Z,8.63
2023-04-18T05:40:09.514Z,8.50
2023-04-18T05:42:56.045Z,9.13
2023-04-18T05:45:43.002Z,8.37
2023-04-18T05:48:29.754Z,9.77
2023-04-18T05:51:16.544Z,10.20
2023-04-18T05:54:05.007Z,9.13
2023-04-18T05:56:51.615Z,8.50
2023-04-18T05:59:38.181Z,8.83
2023-04-18T06:02:25.092Z,8.93
2023-04-18T06:05:12.085Z,9.80
2023-04-18T06:07:59.377Z,9.60
2023-04-18T06:10:47.524Z,8.57
2023-04-18T06:13:34.418Z,9.67
2023-04-18T06:16:21.319Z,8.97
2023-04-18T06:19:08.178Z,9.83
2023-04-18T06:21:55.317Z,8.60
2023-04-18T06:24:41.702Z,9.97
2023-04-18T06:27:31.817Z,8.73
2023-04-18T06:30:21.916Z,9.40
2023-04-18T06:33:10.530Z,8.50
2023-04-18T06:35:57.221Z,9.50
2023-04-18T06:38:44.030Z,7.83
2023-04-18T06:41:30.662Z,7.93
2023-04-18T06:44:18.953Z,8.47
2023-04-18T06:47:05.708Z,8.30
2023-04-18T06:49:52.423Z,8.47
2023-04-18T06:52:44.469Z,8.60
2023-04-18T06:55:31.460Z,7.70
2023-04-18T06:58:18.209Z,7.50
2023-04-18T07:01:06.601Z,8.10
2023-04-18T07:03:53.159Z,7.83
2023-04-18T07:06:39.856Z,9.27
2023-04-18T07:09:26.627Z,8.30
2023-04-18T07:12:13.457Z,7.67
2023-04-18T07:15:00.160Z,7.90
2023-04-18T07:17:48.263Z,8.70
2023-04-18T07:20:35.200Z,8.37
2023-04-18T07:23:26.238Z,8.20
2023-04-18T07:26:14.390Z,8.03
2023-04-18T07:29:03.166Z,8.03
2023-04-18T07:31:49.990Z,8.00
2023-04-18T07:34:37.891Z,8.80
2023-04-18T07:37:24.691Z,7.70
2023-04-18T07:40:12.350Z,9.03
2023-04-18T07:42:58.963Z,7.73
2023-04-18T07:45:46.266Z,7.63
2023-04-18T07:48:32.991Z,7.73
2023-04-18T07:51:21.409Z,7.30
2023-04-18T07:54:11.174Z,7.37
2023-04-18T07:57:01.893Z,7.90
2023-04-18T07:59:49.336Z,7.90
2023-04-18T08:02:39.684Z,8.13
2023-04-18T08:05:27.799Z,8.27
2023-04-18T08:08:15.918Z,8.00
2023-04-18T08:11:02.973Z,7.83
2023-04-18T08:13:49.404Z,8.20
2023-04-18T08:16:36.430Z,7.00
2023-04-18T08:19:24.316Z,8.03
2023-04-18T08:22:12.412Z,8.97
2023-04-18T08:25:04.836Z,7.80
2023-04-18T08:27:51.782Z,8.20
2023-04-18T08:30:38.592Z,8.63
2023-04-18T08:33:25.504Z,8.23
2023-04-18T08:36:12.232Z,9.67
2023-04-18T08:38:58.876Z,8.30
2023-04-18T08:41:52.155Z,9.27
2023-04-18T08:44:39.067Z,8.40
2023-04-18T08:47:25.963Z,8.27
2023-04-18T08:50:16.653Z,9.10
2023-04-18T08:53:03.448Z,7.83
2023-04-18T08:55:54.693Z,8.57
2023-04-18T08:58:49.722Z,8.10
2023-04-18T09:02:07.146Z,7.93
2023-04-18T09:05:05.296Z,8.00
2023-04-18T09:07:58.765Z,7.67
2023-04-18T09:10:48.304Z,8.60
2023-04-18T09:13:47.698Z,7.60
2023-04-18T09:16:46.994Z,8.27
2023-04-18T09:19:34.003Z,7.30
2023-04-18T09:22:22.034Z,7.40
2023-04-18T09:25:10.098Z,7.63
2023-04-18T09:27:57.429Z,7.60
2023-04-18T09:30:46.660Z,7.63
2023-04-18T09:33:33.719Z,7.80
2023-04-18T09:36:22.052Z,8.40
2023-04-18T09:39:08.873Z,7.90
2023-04-18T09:42:00.583Z,7.67
2023-04-18T09:45:02.353Z,7.47
2023-04-18T09:47:50.725Z,7.93
2023-04-18T09:50:38.002Z,7.60
2023-04-18T09:53:25.645Z,7.90
2023-04-18T09:56:20.913Z,7.03
2023-04-18T09:59:10.124Z,8.30
2023-04-18T10:01:59.270Z,8.10
2023-04-18T10:04:48.305Z,7.50
2023-04-18T10:07:35.253Z,7.40
2023-04-18T10:10:22.083Z,7.60
2023-04-18T10:13:11.285Z,8.47
2023-04-18T10:15:58.270Z,8.70
2023-04-18T10:18:45.056Z,7.37
2023-04-18T10:21:37.976Z,7.83
2023-04-18T10:24:53.120Z,8.40
2023-04-18T10:27:57.565Z,7.43
2023-04-18T10:31:03.672Z,6.93
2023-04-18T10:34:04.126Z,9.23
2023-04-18T10:37:06.465Z,7.70
2023-04-18T10:39:58.724Z,6.53
2023-04-18T10:43:00.919Z,7.40
2023-04-18T10:46:23.825Z,8.20
2023-04-18T10:49:16.903Z,7.97
2023-04-18T10:52:06.920Z,8.73
2023-04-18T10:54:59.483Z,8.20
2023-04-18T10:57:47.598Z,8.27
2023-04-18T11:00:34.545Z,8.60
2023-04-18T11:03:21.111Z,9.40
2023-04-18T11:06:08.158Z,9.07
2023-04-18T11:12:05.471Z,8.30
2023-04-18T11:14:53.384Z,7.43
2023-04-18T11:17:41.537Z,8.50
2023-04-18T11:20:29.393Z,8.77
2023-04-18T11:23:21.549Z,7.07
2023-04-18T11:26:08.856Z,9.10
2023-04-18T11:28:59.592Z,9.03
2023-04-18T11:31:52.274Z,8.80
2023-04-18T11:34:38.759Z,8.77
2023-04-18T11:37:25.531Z,8.80
2023-04-18T11:40:13.966Z,8.27
2023-04-18T11:43:02.987Z,9.77
2023-04-18T11:45:54.470Z,8.80
2023-04-18T11:48:42.247Z,9.20
2023-04-18T11:51:38.402Z,9.40
2023-04-18T11:54:39.058Z,10.20
2023-04-18T11:57:26.935Z,9.47
2023-04-18T12:00:15.042Z,9.83
2023-04-18T12:03:05.477Z,8.60
2023-04-18T12:06:00.083Z,8.87
2023-04-18T12:08:46.776Z,9.13
2023-04-18T12:11:33.646Z,9.20
2023-04-18T12:14:21.712Z,9.60
2023-04-18T12:17:08.271Z,9.53
2023-04-18T12:19:57.751Z,9.17
2023-04-18T12:22:46.232Z,9.87
2023-04-18T12:25:33.641Z,8.47
2023-04-18T12:28:21.254Z,8.50
2023-04-18T12:31:08.239Z,8.53
2023-04-18T12:33:56.788Z,7.03
2023-04-18T12:36:45.634Z,7.43
2023-04-18T12:39:32.205Z,8.27
2023-04-18T12:42:19.133Z,7.87
2023-04-18T12:45:07.804Z,6.93
2023-04-18T12:47:54.620Z,8.23
2023-04-18T12:50:41.184Z,8.23
2023-04-18T12:53:29.353Z,7.33
2023-04-18T12:56:16.419Z,7.60
2023-04-18T12:59:03.011Z,7.50
2023-04-18T13:01:49.923Z,7.23
2023-04-18T13:04:36.809Z,7.57
2023-04-18T13:07:23.357Z,7.80
2023-04-18T13:10:13.332Z,7.37
2023-04-18T13:13:00.003Z,7.70
2023-04-18T13:15:46.823Z,7.87
2023-04-18T13:18:33.548Z,7.50
2023-04-18T13:21:20.260Z,6.47
2023-04-18T13:24:07.516Z,7.07
2023-04-18T13:26:56.547Z,8.03
2023-04-18T13:29:44.223Z,7.30
2023-04-18T13:32:30.642Z,7.67
2023-04-18T13:35:17.307Z,7.53
2023-04-18T13:38:04.205Z,7.50
2023-04-18T13:40:58.245Z,6.47
2023-04-18T13:43:52.673Z,7.17
2023-04-18T13:46:39.480Z,6.53
2023-04-18T13:49:26.271Z,6.40
2023-04-18T13:52:13.099Z,6.40
2023-04-18T13:54:59.946Z,6.73
2023-04-18T13:57:46.977Z,6.80
2023-04-18T14:00:35.163Z,6.33
2023-04-18T14:03:21.789Z,6.87
2023-04-18T14:06:08.611Z,6.53
2023-04-18T14:08:55.311Z,6.57
2023-04-18T14:11:41.899Z,6.57
2023-04-18T14:14:28.818Z,5.67
2023-04-18T14:17:16.980Z,5.63
2023-04-18T14:20:05.098Z,6.03
2023-04-18T14:22:53.411Z,5.77
2023-04-18T14:25:39.943Z,5.40
2023-04-18T14:28:27.649Z,4.93
2023-04-18T14:31:14.648Z,5.13
2023-04-18T14:34:02.736Z,4.23
2023-04-18T14:36:49.242Z,5.23
2023-04-18T14:39:35.968Z,4.67
2023-04-18T14:42:22.989Z,5.13
2023-04-18T14:45:11.381Z,6.23
2023-04-18T14:47:59.210Z,4.30
2023-04-18T14:50:47.311Z,4.27
2023-04-18T14:53:34.531Z,4.33
2023-04-18T14:56:23.657Z,4.20
2023-04-18T14:59:10.272Z,4.00
2023-04-18T15:01:57.054Z,4.70
2023-04-18T15:04:43.929Z,4.03
2023-04-18T15:07:31.904Z,4.30
2023-04-18T15:10:18.897Z,3.77
2023-04-18T15:13:05.725Z,3.90
2023-04-18T15:15:53.106Z,3.50
2023-04-18T15:18:39.899Z,3.73
2023-04-18T15:21:27.324Z,3.70
2023-04-18T15:24:15.734Z,3.83
2023-04-18T15:27:02.637Z,3.30
2023-04-18T15:29:49.397Z,3.30
2023-04-18T15:32:37.005Z,3.00
2023-04-18T15:35:23.474Z,3.80
2023-04-18T15:38:10.816Z,3.43
2023-04-18T15:40:59.216Z,3.17
2023-04-18T15:43:46.025Z,3.30
2023-04-18T15:46:32.865Z,3.00
2023-04-18T15:49:19.746Z,3.40
2023-04-18T15:52:07.442Z,3.00
2023-04-18T15:54:54.895Z,3.23
2023-04-18T15:57:42.839Z,3.20
2023-04-18T16:00:29.460Z,3.00
2023-04-18T16:03:16.480Z,4.13
2023-04-18T16:06:04.662Z,3.30
2023-04-18T16:08:51.509Z,3.00
2023-04-18T16:11:38.350Z,3.03
2023-04-18T16:14:26.652Z,2.90
2023-04-18T16:17:13.485Z,2.90
2023-04-18T16:20:00.482Z,2.80
2023-04-18T16:22:48.193Z,3.10
2023-04-18T16:25:35.038Z,3.20
2023-04-18T16:28:21.980Z,3.20
2023-04-18T16:31:10.247Z,3.23
2023-04-18T16:33:57.193Z,3.30
2023-04-18T16:36:44.088Z,3.20
2023-04-18T16:39:31.345Z,3.17
2023-04-18T16:42:18.184Z,3.43
2023-04-18T16:45:05.678Z,3.10
2023-04-18T16:47:53.591Z,3.43
2023-04-18T16:50:40.395Z,3.43
2023-04-18T16:53:27.095Z,3.43
2023-04-18T16:56:13.925Z,3.47
2023-04-18T16:59:00.630Z,3.27
2023-04-18T17:01:47.491Z,3.67
2023-04-18T17:04:35.700Z,3.87
2023-04-18T17:07:22.563Z,3.90
2023-04-18T17:10:10.669Z,3.60
2023-04-18T17:12:57.265Z,4.37
2023-04-18T17:15:44.234Z,4.00
2023-04-18T17:18:30.928Z,4.20
2023-04-18T17:21:19.197Z,3.50
2023-04-18T17:24:07.169Z,4.03
2023-04-18T17:26:53.987Z,3.40
2023-04-18T17:29:41.011Z,3.80
2023-04-18T17:32:27.529Z,3.63
2023-04-18T17:35:15.297Z,3.47
2023-04-18T17:38:03.425Z,3.60
2023-04-18T17:40:50.237Z,3.43
2023-04-18T17:43:37.507Z,4.00
2023-04-18T17:46:24.072Z,3.60
2023-04-18T17:49:11.396Z,4.00
2023-04-18T17:51:58.254Z,3.67
2023-04-18T17:54:46.421Z,3.83
2023-04-18T17:57:33.688Z,3.87
2023-04-18T18:00:20.536Z,3.83
2023-04-18T18:03:09.375Z,3.63
2023-04-18T18:05:56.004Z,3.83
2023-04-18T18:08:44.541Z,4.13
2023-04-18T18:11:32.567Z,4.03
2023-04-18T18:14:20.216Z,4.07
2023-04-18T18:17:06.725Z,4.00
2023-04-18T18:19:53.540Z,3.67
2023-04-18T18:22:40.690Z,3.97
2023-04-18T18:25:28.651Z,3.73
2023-04-18T18:28:16.923Z,3.40
2023-04-18T18:31:03.618Z,4.00
2023-04-18T18:33:50.443Z,3.70
2023-04-18T18:36:37.841Z,3.80
2023-04-18T18:39:25.153Z,3.40
2023-04-18T18:42:11.938Z,3.27
2023-04-18T18:45:02.514Z,4.33
2023-04-18T18:47:51.198Z,4.00
2023-04-18T18:50:39.315Z,3.63
2023-04-18T18:53:27.183Z,3.80
2023-04-18T18:56:15.257Z,3.80
2023-04-18T18:59:02.722Z,3.43
2023-04-18T19:01:52.268Z,3.77
2023-04-18T19:04:39.116Z,3.97
2023-04-18T19:07:25.915Z,4.10
2023-04-18T19:10:12.603Z,3.80
2023-04-18T19:13:00.332Z,4.00
2023-04-18T19:15:46.954Z,4.13
2023-04-18T19:18:37.218Z,4.20
2023-04-18T19:21:23.881Z,4.40
2023-04-18T19:24:11.870Z,4.37
2023-04-18T19:26:59.778Z,4.20
2023-04-18T19:29:46.426Z,4.23
2023-04-18T19:32:33.649Z,4.60
2023-04-18T19:35:21.950Z,4.23
2023-04-18T19:38:08.547Z,4.10
2023-04-18T19:40:55.237Z,4.10
2023-04-18T19:43:42.634Z,4.73
2023-04-18T19:46:29.218Z,4.20
2023-04-18T19:49:16.276Z,4.00
2023-04-18T19:52:04.717Z,4.80
2023-04-18T19:54:53.157Z,4.27
2023-04-18T19:57:41.351Z,5.23
2023-04-18T20:00:28.263Z,4.00
2023-04-18T20:03:16.353Z,4.80
2023-04-18T20:06:05.538Z,4.20
2023-04-18T20:08:54.261Z,4.57
2023-04-18T20:11:40.966Z,5.33
2023-04-18T20:14:28.388Z,4.43
2023-04-18T20:17:18.611Z,4.57
2023-04-18T20:20:08.974Z,4.40
2023-04-18T20:22:55.601Z,4.07
2023-04-18T20:25:44.101Z,5.20
2023-04-18T20:28:31.384Z,4.57
2023-04-18T20:31:19.108Z,4.70
2023-04-18T20:34:06.719Z,5.03
2023-04-18T20:36:53.233Z,4.47
2023-04-18T20:39:40.005Z,4.00
2023-04-18T20:42:28.442Z,5.07
2023-04-18T20:45:15.152Z,4.93
2023-04-18T20:48:02.404Z,4.73
2023-04-18T20:50:51.974Z,5.73
2023-04-18T20:53:38.576Z,5.40
2023-04-18T20:56:25.578Z,5.07
2023-04-18T20:59:13.899Z,5.70
2023-04-18T21:02:00.970Z,5.00
2023-04-18T21:04:47.803Z,5.30
2023-04-18T21:07:34.327Z,5.03
2023-04-18T21:10:21.283Z,4.73
2023-04-18T21:13:09.341Z,5.37
2023-04-18T21:15:57.414Z,5.13
2023-04-18T21:18:44.354Z,5.90
2023-04-18T21:21:31.669Z,5.17
2023-04-18T21:24:18.571Z,4.67
2023-04-18T21:27:05.467Z,5.30
2023-04-18T21:29:52.226Z,6.00
2023-04-18T21:32:40.432Z,4.60
2023-04-18T21:35:29.728Z,5.30
2023-04-18T21:38:16.310Z,5.10
2023-04-18T21:41:09.442Z,4.33
2023-04-18T21:43:59.459Z,4.13
2023-04-18T21:46:48.043Z,3.47
2023-04-18T21:49:36.166Z,4.00
2023-04-18T21:52:22.986Z,3.87
2023-04-18T21:55:10.573Z,3.90
2023-04-18T21:57:57.067Z,4.20
2023-04-18T22:00:43.844Z,3.80
2023-04-18T22:03:31.639Z,4.07
2023-04-18T22:06:23.588Z,4.20
2023-04-18T22:09:13.674Z,3.60
2023-04-18T22:12:00.391Z,4.63
2023-04-18T22:14:48.645Z,4.23
2023-04-18T22:17:38.737Z,3.30
2023-04-18T22:20:26.983Z,3.77
2023-04-18T22:23:16.336Z,4.37
2023-04-18T22:26:02.790Z,4.30
2023-04-18T22:28:49.579Z,4.20
2023-04-18T22:31:36.584Z,4.17
2023-04-18T22:34:23.172Z,3.77
2023-04-18T22:37:09.840Z,3.77
2023-04-18T22:40:01.976Z,4.10
2023-04-18T22:42:51.969Z,4.23
2023-04-18T22:45:38.707Z,3.87
2023-04-18T22:48:25.536Z,3.40
2023-04-18T22:51:14.955Z,3.70
2023-04-18T22:54:01.751Z,4.03
2023-04-18T22:56:51.739Z,3.80
2023-04-18T22:59:38.390Z,4.23
2023-04-18T23:02:25.554Z,3.57
2023-04-18T23:05:12.292Z,3.37
2023-04-18T23:08:00.389Z,3.70
2023-04-18T23:10:47.258Z,3.30
2023-04-18T23:13:35.490Z,3.00
2023-04-18T23:16:23.122Z,3.97
2023-04-18T23:19:10.003Z,3.63
2023-04-18T23:21:56.792Z,2.93
2023-04-18T23:24:43.695Z,3.83
2023-04-18T23:27:31.754Z,3.40
2023-04-18T23:30:21.591Z,3.27
2023-04-18T23:33:10.463Z,3.50
2023-04-18T23:35:58.742Z,2.97
2023-04-18T23:38:47.609Z,3.30
2023-04-18T23:41:34.319Z,3.03
2023-04-18T23:44:22.869Z,3.10
2023-04-18T23:47:13.276Z,3.03
2023-04-18T23:50:01.739Z,3.60
2023-04-18T23:52:50.150Z,3.73
2023-04-18T23:55:37.028Z,3.47
2023-04-18T23:58:27.053Z,3.73
